Time;durP1;ratioP1;P1;durP2;ratioP2;P2;SDS_P1;SDS_P2;PMS_P1;PMS_P2;Temp;Humidity;BMP_temperature;BMP_pressure;BME280_temperature;BME280_humidity;BME280_pressure;Samples;Min_cycle;Max_cycle;Signal;HPM_P1;HPM_P2
2023/06/01 00:01:59;;;;;;;69.07;10.30;;;17.30;24.30;;;;;;4882026;29;20428;-79
2023/06/01 00:04:25;;;;;;;71.37;8.73;;;17.40;23.30;;;;;;4881784;29;20183;-79
2023/06/01 00:06:50;;;;;;;69.50;7.80;;;17.50;19.00;;;;;;4883287;29;20225;-78
2023/06/01 00:09:17;;;;;;;70.17;7.37;;;17.50;20.60;;;;;;4883068;29;20171;-79
2023/06/01 00:11:42;;;;;;;68.50;7.97;;;17.50;20.30;;;;;;4881587;29;20234;-79
2023/06/01 00:14:08;;;;;;;73.00;7.60;;;17.50;19.20;;;;;;4882786;29;20407;-78
2023/06/01 00:16:34;;;;;;;74.30;8.57;;;17.50;18.70;;;;;;4883044;29;20491;-79
2023/06/01 00:19:03;;;;;;;70.30;9.90;;;17.30;22.40;;;;;;4882706;29;20183;-79
2023/06/01 00:21:31;;;;;;;75.03;11.80;;;17.10;26.10;;;;;;4881637;29;20265;-79
2023/06/01 00:23:57;;;;;;;70.03;15.03;;;17.00;29.70;;;;;;4882726;29;20423;-79
2023/06/01 00:26:23;;;;;;;81.47;21.50;;;16.90;35.00;;;;;;4883158;29;20435;-78
2023/06/01 00:28:49;;;;;;;72.83;19.43;;;16.70;41.80;;;;;;4882848;29;20179;-79
2023/06/01 00:31:15;;;;;;;74.63;23.17;;;16.70;43.60;;;;;;4882288;29;20463;-79
2023/06/01 00:33:41;;;;;;;73.37;22.00;;;16.70;44.20;;;;;;4881478;29;20769;-79
2023/06/01 00:36:06;;;;;;;73.97;21.30;;;16.60;44.50;;;;;;4882086;29;20222;-78
2023/06/01 00:38:32;;;;;;;74.40;24.40;;;16.50;45.70;;;;;;4883031;29;20182;-78
2023/06/01 00:40:58;;;;;;;74.10;21.77;;;16.50;47.30;;;;;;4882629;29;20498;-78
2023/06/01 00:43:24;;;;;;;72.30;21.00;;;16.40;50.90;;;;;;4882028;29;20171;-79
2023/06/01 00:45:49;;;;;;;74.63;21.17;;;16.40;51.30;;;;;;4881023;29;20175;-79
2023/06/01 00:48:16;;;;;;;76.37;23.67;;;16.40;51.60;;;;;;4882275;29;20258;-78
2023/06/01 00:50:42;;;;;;;71.67;19.73;;;16.30;53.70;;;;;;4881941;29;20655;-78
2023/06/01 00:53:20;;;;;;;72.60;21.10;;;16.30;52.80;;;;;;4882137;29;20823;-78
2023/06/01 00:55:46;;;;;;;75.17;20.27;;;16.30;53.70;;;;;;4882236;29;20391;-79
2023/06/01 00:58:15;;;;;;;72.63;20.10;;;16.30;53.80;;;;;;4882504;29;20439;-79
2023/06/01 01:00:41;;;;;;;73.03;19.00;;;16.30;55.20;;;;;;4882894;29;20416;-79
2023/06/01 01:03:08;;;;;;;74.63;18.47;;;16.30;54.40;;;;;;4881196;29;20418;-79
2023/06/01 01:05:36;;;;;;;74.27;20.13;;;16.30;52.70;;;;;;4883262;29;20175;-79
2023/06/01 01:08:23;;;;;;;73.00;17.73;;;16.30;51.10;;;;;;4881930;29;20437;-79
2023/06/01 01:10:52;;;;;;;77.63;18.00;;;16.20;51.70;;;;;;4882729;29;20817;-79
2023/06/01 01:13:30;;;;;;;73.50;19.07;;;16.20;52.30;;;;;;4880888;29;20459;-79
2023/06/01 01:15:59;;;;;;;75.10;15.43;;;16.30;49.60;;;;;;4882052;29;20805;-79
2023/06/01 01:18:35;;;;;;;82.80;16.63;;;16.20;54.10;;;;;;4880535;29;20415;-79
2023/06/01 01:21:03;;;;;;;72.00;14.70;;;16.20;56.20;;;;;;4882175;29;20412;-79
2023/06/01 01:23:59;;;;;;;73.93;17.33;;;16.20;57.00;;;;;;4882020;29;20438;-79
2023/06/01 01:27:03;;;;;;;72.80;16.53;;;16.20;52.40;;;;;;4881300;29;20824;-79
2023/06/01 01:29:32;;;;;;;75.17;14.40;;;16.20;53.80;;;;;;4879730;29;20430;-79
2023/06/01 01:32:02;;;;;;;75.40;15.80;;;16.20;53.40;;;;;;4881322;29;20526;-79
2023/06/01 01:34:30;;;;;;;74.43;15.13;;;16.10;53.80;;;;;;4880955;29;20825;-79
2023/06/01 01:36:55;;;;;;;71.80;11.90;;;16.00;57.80;;;;;;4881738;29;20431;-79
2023/06/01 01:39:21;;;;;;;70.57;12.13;;;15.90;62.70;;;;;;4880299;29;20911;-79
2023/06/01 01:41:47;;;;;;;71.10;11.93;;;15.80;66.80;;;;;;4881800;29;20226;-79
2023/06/01 01:44:14;;;;;;;69.77;10.77;;;15.80;67.30;;;;;;4881508;29;20167;-79
2023/06/01 01:46:48;;;;;;;74.33;12.40;;;15.80;67.90;;;;;;4880733;29;20559;-79
2023/06/01 01:49:17;;;;;;;72.37;10.00;;;15.70;71.20;;;;;;4881115;29;20495;-79
2023/06/01 01:52:20;;;;;;;71.27;11.20;;;15.70;69.70;;;;;;4881027;29;20545;-79
2023/06/01 01:54:49;;;;;;;71.57;10.00;;;15.60;70.50;;;;;;4881089;29;20403;-78
2023/06/01 01:57:17;;;;;;;71.77;11.23;;;15.60;75.70;;;;;;4880972;29;20427;-78
2023/06/01 01:59:43;;;;;;;71.90;12.27;;;15.60;73.60;;;;;;4880798;29;20402;-78
2023/06/01 02:02:09;;;;;;;80.80;11.07;;;15.70;74.80;;;;;;4881066;29;20411;-78
2023/06/01 02:04:43;;;;;;;70.93;12.43;;;15.70;74.00;;;;;;4880693;29;20463;-78
2023/06/01 02:07:10;;;;;;;71.90;13.03;;;15.80;68.20;;;;;;4878872;29;20522;-78
2023/06/01 02:09:36;;;;;;;70.40;10.17;;;15.80;65.40;;;;;;4879700;29;20454;-78
2023/06/01 02:12:02;;;;;;;71.70;11.23;;;16.00;61.00;;;;;;4880535;29;20815;-78
2023/06/01 02:14:28;;;;;;;68.70;9.13;;;16.00;60.90;;;;;;4880909;29;20408;-78
2023/06/01 02:16:54;;;;;;;69.67;8.53;;;16.20;53.20;;;;;;4880576;29;20191;-78
2023/06/01 02:19:20;;;;;;;70.10;8.70;;;16.10;53.20;;;;;;4881093;29;20411;-78
2023/06/01 02:21:46;;;;;;;69.00;8.90;;;16.00;55.60;;;;;;4884388;29;20668;-78
2023/06/01 02:24:12;;;;;;;71.50;9.67;;;16.00;58.10;;;;;;4883772;29;20415;-78
2023/06/01 02:26:38;;;;;;;69.90;8.20;;;15.90;60.70;;;;;;4883998;29;20242;-78
2023/06/01 02:29:05;;;;;;;68.60;9.03;;;15.80;61.00;;;;;;4883965;29;20504;-78
2023/06/01 02:31:32;;;;;;;70.47;10.17;;;15.80;61.90;;;;;;4882233;29;20566;-78
2023/06/01 02:33:58;;;;;;;69.37;10.63;;;15.70;65.50;;;;;;4883483;29;20414;-78
2023/06/01 02:36:25;;;;;;;68.30;9.30;;;15.70;69.50;;;;;;4883497;29;20430;-78
2023/06/01 02:38:51;;;;;;;68.60;9.47;;;15.60;70.10;;;;;;4883700;29;20431;-78
2023/06/01 02:41:16;;;;;;;73.40;9.90;;;15.40;74.30;;;;;;4883602;29;20930;-78
2023/06/01 02:43:42;;;;;;;72.07;11.47;;;15.30;78.50;;;;;;4883628;29;20207;-78
2023/06/01 02:46:07;;;;;;;71.47;9.73;;;15.20;80.80;;;;;;4883148;29;20645;-78
2023/06/01 02:48:33;;;;;;;72.17;11.73;;;15.20;82.80;;;;;;4883493;29;20608;-78
2023/06/01 02:51:00;;;;;;;69.50;9.47;;;15.10;84.40;;;;;;4882004;29;20212;-78
2023/06/01 02:53:28;;;;;;;70.30;11.53;;;15.10;87.50;;;;;;4883470;29;20419;-78
2023/06/01 02:55:54;;;;;;;73.57;12.90;;;15.00;82.90;;;;;;4883513;29;20446;-78
2023/06/01 02:58:20;;;;;;;69.57;9.33;;;15.00;87.20;;;;;;4882022;29;20851;-78
2023/06/01 03:00:46;;;;;;;69.17;7.30;;;15.00;89.70;;;;;;4883214;29;20416;-78
2023/06/01 03:03:12;;;;;;;70.53;10.90;;;15.30;72.10;;;;;;4883133;29;20422;-78
2023/06/01 03:05:38;;;;;;;71.27;10.70;;;15.20;78.40;;;;;;4883457;29;20476;-77
2023/06/01 03:08:06;;;;;;;72.63;10.67;;;15.10;82.10;;;;;;4883147;29;20466;-78
2023/06/01 03:10:31;;;;;;;72.77;11.00;;;15.00;84.70;;;;;;4881582;29;20438;-78
2023/06/01 03:12:57;;;;;;;69.60;10.10;;;15.10;84.90;;;;;;4881509;29;20465;-78
2023/06/01 03:15:23;;;;;;;69.50;11.70;;;15.00;86.90;;;;;;4882870;29;20172;-78
2023/06/01 03:17:49;;;;;;;70.87;11.57;;;15.10;83.40;;;;;;4882493;29;20540;-78
2023/06/01 03:20:15;;;;;;;70.53;10.40;;;15.00;88.50;;;;;;4882629;29;20540;-78
2023/06/01 03:22:42;;;;;;;73.20;10.83;;;15.00;87.00;;;;;;4882415;29;20164;-78
2023/06/01 03:25:08;;;;;;;72.37;12.70;;;15.20;81.10;;;;;;4882811;29;20406;-78
2023/06/01 03:27:35;;;;;;;70.97;10.97;;;15.30;78.80;;;;;;4882547;29;20878;-78
2023/06/01 03:30:02;;;;;;;73.07;14.73;;;15.30;77.70;;;;;;4882324;29;20456;-78
2023/06/01 03:32:27;;;;;;;72.63;11.77;;;15.30;80.10;;;;;;4881423;29;20888;-78
2023/06/01 03:34:53;;;;;;;68.47;8.90;;;15.30;78.80;;;;;;4881317;29;20516;-78
2023/06/01 03:37:19;;;;;;;70.50;9.87;;;15.30;76.30;;;;;;4882751;29;20558;-78
2023/06/01 03:39:45;;;;;;;74.70;10.67;;;15.30;77.00;;;;;;4883706;29;20175;-79
2023/06/01 03:42:11;;;;;;;70.20;10.17;;;15.20;80.80;;;;;;4884159;29;20414;-79
2023/06/01 03:44:38;;;;;;;70.80;10.40;;;15.20;83.10;;;;;;4884729;29;20421;-79
2023/06/01 03:47:14;;;;;;;71.37;14.17;;;15.30;79.70;;;;;;4949789;23;20220;-86
2023/06/01 03:49:40;;;;;;;73.93;11.60;;;15.20;83.90;;;;;;4889659;29;20848;-87
2023/06/01 03:52:09;;;;;;;71.17;10.87;;;15.30;82.40;;;;;;4888852;29;20464;-87
2023/06/01 03:54:40;;;;;;;76.10;10.80;;;15.40;79.80;;;;;;4889191;29;20201;-84
2023/06/01 03:57:09;;;;;;;72.20;10.47;;;15.40;81.90;;;;;;4889616;29;20430;-84
2023/06/01 03:59:35;;;;;;;71.27;11.77;;;15.40;84.60;;;;;;4889159;29;20450;-84
2023/06/01 04:02:09;;;;;;;72.53;16.17;;;15.40;85.40;;;;;;4887784;29;20409;-84
2023/06/01 04:04:35;;;;;;;73.53;12.60;;;15.20;90.50;;;;;;4888265;29;20169;-84
2023/06/01 04:07:02;;;;;;;75.90;14.97;;;15.30;91.60;;;;;;4888882;29;20945;-84
2023/06/01 04:09:32;;;;;;;72.07;13.60;;;15.30;91.40;;;;;;4888789;29;20476;-84
2023/06/01 04:12:02;;;;;;;73.10;12.87;;;15.40;89.10;;;;;;4888164;29;20806;-84
2023/06/01 04:14:28;;;;;;;78.53;14.67;;;15.40;90.90;;;;;;4889448;29;20394;-84
2023/06/01 04:16:54;;;;;;;73.40;12.27;;;15.40;90.50;;;;;;4886963;29;20441;-84
2023/06/01 04:19:19;;;;;;;72.77;14.07;;;15.40;91.00;;;;;;4887817;29;20184;-84
2023/06/01 04:21:45;;;;;;;75.23;14.50;;;15.40;91.70;;;;;;4888768;29;20191;-84
2023/06/01 04:24:11;;;;;;;73.17;11.57;;;15.30;94.80;;;;;;4886748;29;20178;-84
2023/06/01 04:26:37;;;;;;;84.83;10.00;;;15.10;99.90;;;;;;4889250;29;20445;-84
2023/06/01 04:29:03;;;;;;;75.30;13.30;;;15.00;99.90;;;;;;4886338;29;20173;-84
2023/06/01 04:31:34;;;;;;;76.70;11.70;;;15.00;99.90;;;;;;4888719;29;20481;-84
2023/06/01 04:34:01;;;;;;;77.37;10.77;;;15.10;99.90;;;;;;4889253;29;20414;-84
2023/06/01 04:36:28;;;;;;;73.43;11.23;;;15.10;99.90;;;;;;4889267;29;20425;-84
2023/06/01 04:38:54;;;;;;;75.67;12.00;;;15.20;99.90;;;;;;4889379;29;20425;-84
2023/06/01 04:41:21;;;;;;;87.10;16.03;;;15.40;99.90;;;;;;4887649;29;20410;-84
2023/06/01 04:43:54;;;;;;;79.93;14.90;;;15.70;99.90;;;;;;4888525;29;20424;-84
2023/06/01 04:46:26;;;;;;;78.50;13.97;;;16.00;99.90;;;;;;4888201;29;20509;-85
2023/06/01 04:48:57;;;;;;;77.17;11.17;;;16.30;96.70;;;;;;4887535;29;20431;-87
2023/06/01 04:51:23;;;;;;;72.70;9.30;;;16.50;93.10;;;;;;4886284;29;20882;-87
2023/06/01 04:56:24;;;;;;;83.43;10.00;;;16.60;89.80;;;;;;4885273;29;20471;-84
2023/06/01 04:59:00;;;;;;;74.97;9.30;;;16.70;84.80;;;;;;4886176;29;20463;-84
2023/06/01 05:01:29;;;;;;;74.10;9.00;;;16.80;75.60;;;;;;4884778;29;20415;-84
2023/06/01 05:03:55;;;;;;;78.70;10.50;;;16.70;72.80;;;;;;4885886;29;20511;-84
2023/06/01 05:06:28;;;;;;;76.30;11.47;;;16.60;78.20;;;;;;4884954;29;20769;-84
2023/06/01 05:08:54;;;;;;;77.40;11.47;;;16.60;75.90;;;;;;4885012;29;20395;-84
2023/06/01 05:11:22;;;;;;;76.27;11.10;;;16.30;84.30;;;;;;4884594;29;20443;-84
2023/06/01 05:14:01;;;;;;;78.50;11.53;;;16.30;86.90;;;;;;4884886;29;20391;-84
2023/06/01 05:16:27;;;;;;;80.80;13.27;;;16.20;90.30;;;;;;4889984;23;20491;-84
2023/06/01 05:19:06;;;;;;;87.20;12.90;;;16.30;89.80;;;;;;4882473;29;20431;-84
2023/06/01 05:21:47;;;;;;;78.30;14.17;;;16.20;89.90;;;;;;4884646;29;20383;-84
2023/06/01 05:24:13;;;;;;;81.17;14.17;;;16.20;90.20;;;;;;4881829;29;20920;-85
2023/06/01 05:26:41;;;;;;;84.40;15.60;;;16.00;92.70;;;;;;4880589;29;20446;-85
2023/06/01 05:29:07;;;;;;;82.57;13.20;;;16.10;92.40;;;;;;4881979;29;20174;-85
2023/06/01 05:31:33;;;;;;;80.77;14.87;;;16.00;92.80;;;;;;4880203;29;20479;-85
2023/06/01 05:33:58;;;;;;;82.07;16.77;;;15.90;94.80;;;;;;4880024;29;20702;-84
2023/06/01 05:36:24;;;;;;;83.37;15.07;;;15.90;95.30;;;;;;4882951;29;20222;-84
2023/06/01 05:38:56;;;;;;;82.10;15.57;;;15.90;94.40;;;;;;4883124;29;20198;-87
2023/06/01 05:41:21;;;;;;;80.53;15.27;;;15.80;98.10;;;;;;4883490;29;20169;-87
2023/06/01 05:43:47;;;;;;;86.10;17.67;;;15.80;98.00;;;;;;4881063;29;20502;-87
2023/06/01 05:46:13;;;;;;;81.70;17.50;;;15.70;98.80;;;;;;4884750;29;20187;-87
2023/06/01 05:48:39;;;;;;;84.97;17.67;;;15.70;98.60;;;;;;4884441;29;20190;-87
2023/06/01 05:51:07;;;;;;;92.87;17.80;;;15.70;98.60;;;;;;4882232;29;20354;-86
2023/06/01 05:53:33;;;;;;;97.73;18.77;;;15.60;98.70;;;;;;4882305;29;20405;-86
2023/06/01 05:56:04;;;;;;;85.23;19.80;;;15.60;99.90;;;;;;4885634;29;20496;-86
2023/06/01 05:58:42;;;;;;;85.83;18.53;;;15.60;99.90;;;;;;4886835;29;20152;-87
2023/06/01 06:01:20;;;;;;;91.73;20.47;;;15.50;99.90;;;;;;4885470;29;20416;-86
2023/06/01 06:03:46;;;;;;;86.97;19.33;;;15.50;99.90;;;;;;4887198;29;20435;-87
2023/06/01 06:06:11;;;;;;;92.67;20.97;;;15.40;99.90;;;;;;4886784;29;20446;-87
2023/06/01 06:08:37;;;;;;;95.17;23.23;;;15.40;99.90;;;;;;4889743;29;20169;-87
2023/06/01 06:11:05;;;;;;;89.57;21.73;;;15.40;99.90;;;;;;4890072;29;20170;-84
2023/06/01 06:13:31;;;;;;;91.70;21.77;;;15.40;99.90;;;;;;4889436;29;20172;-84
2023/06/01 06:15:56;;;;;;;89.67;21.63;;;15.40;99.90;;;;;;4890417;29;20469;-84
2023/06/01 06:18:22;;;;;;;94.07;22.07;;;15.40;99.90;;;;;;4890560;29;20201;-84
2023/06/01 06:20:48;;;;;;;94.27;24.47;;;15.50;99.90;;;;;;4889187;29;20653;-84
2023/06/01 06:23:13;;;;;;;93.90;23.77;;;15.50;99.90;;;;;;4889404;29;20177;-84
2023/06/01 06:25:42;;;;;;;94.63;23.83;;;15.50;99.50;;;;;;4886452;29;20172;-84
2023/06/01 06:28:08;;;;;;;94.53;23.57;;;15.40;99.80;;;;;;4885930;29;20193;-84
2023/06/01 06:30:34;;;;;;;89.87;23.87;;;15.40;99.90;;;;;;4887636;29;20419;-84
2023/06/01 06:33:00;;;;;;;99.17;25.20;;;15.50;99.90;;;;;;4888766;29;20805;-84
2023/06/01 06:35:25;;;;;;;99.43;26.87;;;15.60;98.80;;;;;;4888015;29;20205;-84
2023/06/01 06:37:51;;;;;;;99.47;25.47;;;15.50;97.30;;;;;;4887894;29;20602;-84
2023/06/01 06:40:18;;;;;;;98.60;25.40;;;15.50;98.80;;;;;;4887684;29;20172;-84
2023/06/01 06:42:45;;;;;;;91.77;24.50;;;15.60;98.80;;;;;;4885820;29;20239;-84
2023/06/01 06:45:10;;;;;;;92.90;26.00;;;15.60;96.60;;;;;;4889054;29;20442;-84
2023/06/01 06:47:36;;;;;;;95.57;24.60;;;15.60;97.20;;;;;;4887823;29;20943;-84
2023/06/01 06:50:02;;;;;;;98.13;24.87;;;15.60;96.70;;;;;;4887830;29;20179;-84
2023/06/01 06:52:28;;;;;;;92.80;24.70;;;15.50;98.60;;;;;;4888466;29;20453;-84
2023/06/01 06:54:54;;;;;;;96.43;26.73;;;15.50;98.70;;;;;;4888979;29;20898;-84
2023/06/01 06:57:20;;;;;;;96.17;25.80;;;15.60;97.20;;;;;;4888613;29;20517;-84
2023/06/01 06:59:46;;;;;;;92.90;25.57;;;15.50;97.10;;;;;;4887441;29;20164;-84
2023/06/01 07:02:12;;;;;;;97.37;27.90;;;15.50;98.80;;;;;;4885305;29;20477;-85
2023/06/01 07:04:39;;;;;;;94.53;26.00;;;15.50;96.70;;;;;;4886826;29;20416;-84
2023/06/01 07:07:05;;;;;;;96.57;26.97;;;15.40;97.80;;;;;;4887148;29;20189;-84
2023/06/01 07:09:31;;;;;;;98.37;27.40;;;15.40;98.40;;;;;;4889647;29;20765;-87
2023/06/01 07:11:57;;;;;;;101.73;28.57;;;15.50;98.80;;;;;;4887397;29;20531;-87
2023/06/01 07:14:23;;;;;;;107.13;29.93;;;15.40;96.50;;;;;;4885291;29;20782;-86
2023/06/01 07:16:48;;;;;;;99.03;30.97;;;15.50;95.20;;;;;;4884134;29;20208;-87
2023/06/01 07:19:14;;;;;;;98.27;28.93;;;15.50;93.40;;;;;;4883510;29;20180;-87
2023/06/01 07:21:40;;;;;;;95.80;28.40;;;15.50;94.50;;;;;;4885879;29;20196;-86
2023/06/01 07:24:06;;;;;;;108.90;31.47;;;15.50;96.50;;;;;;4887652;29;20169;-87
2023/06/01 07:26:32;;;;;;;97.93;26.23;;;15.60;91.70;;;;;;4886205;29;20432;-87
2023/06/01 07:28:59;;;;;;;97.20;27.47;;;15.70;87.30;;;;;;4883197;29;20500;-87
2023/06/01 07:31:27;;;;;;;93.53;26.07;;;15.50;86.40;;;;;;4881503;29;20196;-87
2023/06/01 07:33:57;;;;;;;91.77;25.20;;;15.40;84.70;;;;;;4881920;29;20414;-87
2023/06/01 07:36:23;;;;;;;92.77;23.93;;;15.30;88.70;;;;;;4881714;29;20433;-88
2023/06/01 07:38:50;;;;;;;94.60;26.00;;;15.30;90.00;;;;;;4880710;29;20423;-87
2023/06/01 07:41:16;;;;;;;95.63;27.37;;;15.40;87.70;;;;;;4880915;29;20423;-87
2023/06/01 07:43:41;;;;;;;100.57;27.93;;;15.40;86.80;;;;;;4881808;29;20769;-87
2023/06/01 07:46:07;;;;;;;97.30;28.83;;;15.40;88.70;;;;;;4881536;29;20168;-87
2023/06/01 07:48:36;;;;;;;96.07;25.40;;;15.40;87.40;;;;;;4880980;29;20707;-87
2023/06/01 07:51:03;;;;;;;92.27;25.90;;;15.40;82.30;;;;;;4882518;29;20172;-87
2023/06/01 07:53:28;;;;;;;97.67;23.93;;;15.40;89.30;;;;;;4882506;29;20653;-87
2023/06/01 07:55:57;;;;;;;94.60;23.97;;;15.40;86.40;;;;;;4881838;29;20501;-87
2023/06/01 07:58:23;;;;;;;101.67;25.77;;;15.40;76.10;;;;;;4882038;29;20549;-87
2023/06/01 08:00:49;;;;;;;96.00;27.27;;;15.30;83.20;;;;;;4881898;29;20408;-87
2023/06/01 08:03:15;;;;;;;95.47;27.03;;;15.20;85.10;;;;;;4882148;29;20183;-87
2023/06/01 08:05:44;;;;;;;92.43;27.37;;;15.10;86.60;;;;;;4881684;29;20892;-87
2023/06/01 08:08:14;;;;;;;92.40;24.90;;;15.20;86.50;;;;;;4881645;29;20559;-87
2023/06/01 08:13:37;;;;;;;98.37;25.13;;;15.20;83.30;;;;;;4970327;23;20490;-87
2023/06/01 08:16:08;;;;;;;94.30;25.13;;;15.30;81.10;;;;;;4880283;29;20402;-86
2023/06/01 08:18:37;;;;;;;94.00;23.20;;;15.40;77.30;;;;;;4879239;29;20407;-87
2023/06/01 08:21:04;;;;;;;92.40;24.83;;;15.40;74.50;;;;;;4880888;29;20405;-87
2023/06/01 08:23:29;;;;;;;90.20;23.20;;;15.40;70.40;;;;;;4880342;29;20429;-87
2023/06/01 08:26:01;;;;;;;92.07;22.67;;;15.40;72.70;;;;;;4880349;29;20964;-87
2023/06/01 08:28:39;;;;;;;92.10;24.10;;;15.40;67.30;;;;;;4880480;29;20253;-87
2023/06/01 08:31:07;;;;;;;91.97;22.00;;;15.30;68.30;;;;;;4880606;29;20385;-87
2023/06/01 08:33:33;;;;;;;92.27;21.50;;;15.30;67.60;;;;;;4880434;29;20435;-87
2023/06/01 08:35:59;;;;;;;87.03;19.17;;;15.40;61.60;;;;;;4880157;29;20454;-86
2023/06/01 08:38:32;;;;;;;90.33;19.00;;;15.50;63.50;;;;;;4879613;29;20397;-87
2023/06/01 08:41:03;;;;;;;92.60;21.90;;;15.60;52.50;;;;;;4879027;29;20161;-87
2023/06/01 08:43:49;;;;;;;87.33;18.87;;;15.70;51.30;;;;;;4879102;29;20408;-87
2023/06/01 08:46:25;;;;;;;88.30;17.87;;;15.70;41.70;;;;;;4879758;29;20470;-86
2023/06/01 08:52:31;;;;;;;87.43;16.93;;;15.80;34.10;;;;;;4847729;29;20461;-87
2023/06/01 08:55:15;;;;;;;88.97;18.37;;;15.80;33.70;;;;;;4843805;29;20398;-87
2023/06/01 08:57:44;;;;;;;87.93;17.07;;;15.80;33.40;;;;;;4862886;29;20442;-87
2023/06/01 09:00:17;;;;;;;92.53;19.73;;;15.90;29.20;;;;;;4879884;29;20413;-87
2023/06/01 09:02:47;;;;;;;90.10;18.90;;;16.00;32.80;;;;;;4880564;29;20890;-87
2023/06/01 09:05:19;;;;;;;85.43;17.70;;;16.00;27.50;;;;;;4879985;29;20414;-87
2023/06/01 09:07:46;;;;;;;84.03;17.50;;;16.00;29.80;;;;;;4879683;29;20441;-87
2023/06/01 09:10:12;;;;;;;86.13;16.90;;;16.10;29.00;;;;;;4878585;29;20426;-87
2023/06/01 09:12:52;;;;;;;90.23;17.60;;;16.30;25.80;;;;;;4880084;29;20525;-87
2023/06/01 09:15:22;;;;;;;87.50;17.90;;;16.50;21.60;;;;;;4878545;29;20164;-88
2023/06/01 09:17:50;;;;;;;87.10;18.43;;;16.60;16.10;;;;;;4879676;29;20428;-87
2023/06/01 09:20:37;;;;;;;89.20;18.93;;;16.60;14.90;;;;;;4878462;29;20440;-88
2023/06/01 09:23:04;;;;;;;88.47;18.40;;;16.60;11.30;;;;;;4879963;29;20575;-87
2023/06/01 09:25:33;;;;;;;86.30;17.60;;;16.60;9.00;;;;;;4879499;29;20495;-87
2023/06/01 09:28:11;;;;;;;83.47;16.13;;;16.70;13.70;;;;;;4878965;29;20459;-87
2023/06/01 09:30:42;;;;;;;87.03;19.63;;;17.00;5.40;;;;;;4879413;29;20445;-87
2023/06/01 09:33:16;;;;;;;85.77;20.00;;;17.10;1.00;;;;;;4878506;29;20455;-87
2023/06/01 09:35:46;;;;;;;86.73;21.17;;;17.20;1.00;;;;;;4878593;29;20486;-87
2023/06/01 09:38:23;;;;;;;93.50;21.60;;;17.30;1.00;;;;;;4878073;29;20478;-87
2023/06/01 09:41:02;;;;;;;85.80;20.93;;;17.60;1.00;;;;;;4879777;29;20789;-87
2023/06/01 09:43:28;;;;;;;82.97;15.17;;;17.90;1.00;;;;;;4879492;29;20395;-87
2023/06/01 09:46:08;;;;;;;84.63;18.67;;;17.90;1.00;;;;;;4879282;29;20443;-86
2023/06/01 09:48:34;;;;;;;85.50;16.57;;;18.20;1.00;;;;;;5044516;23;20494;-84
2023/06/01 09:51:00;;;;;;;81.77;15.13;;;18.60;1.00;;;;;;4894191;29;20482;-83
2023/06/01 09:53:26;;;;;;;81.90;15.80;;;18.60;1.00;;;;;;4893710;29;20455;-84
2023/06/01 09:56:00;;;;;;;80.40;15.07;;;18.60;1.00;;;;;;4894321;29;20419;-83
2023/06/01 09:58:27;;;;;;;82.47;16.87;;;18.80;1.00;;;;;;4893996;29;20408;-84
2023/06/01 10:00:58;;;;;;;83.10;16.13;;;18.80;1.00;;;;;;4894235;29;20959;-84
2023/06/01 10:03:24;;;;;;;85.60;15.77;;;18.80;1.00;;;;;;4894244;29;20425;-84
2023/06/01 10:05:53;;;;;;;85.70;16.27;;;19.00;1.00;;;;;;4893493;29;20406;-83
2023/06/01 10:08:19;;;;;;;80.30;16.00;;;19.10;1.00;;;;;;4892169;29;20439;-83
2023/06/01 10:10:47;;;;;;;92.50;17.90;;;19.30;1.00;;;;;;4892477;29;20446;-83
2023/06/01 10:13:13;;;;;;;85.03;17.47;;;19.50;1.00;;;;;;4891926;29;20203;-84
2023/06/01 10:15:39;;;;;;;84.57;18.43;;;19.40;1.00;;;;;;4893725;29;20415;-83
2023/06/01 10:18:05;;;;;;;84.87;20.57;;;19.60;1.00;;;;;;4894103;29;20537;-83
2023/06/01 10:20:36;;;;;;;83.90;19.30;;;19.80;1.00;;;;;;4893130;29;20163;-83
2023/06/01 10:23:02;;;;;;;88.80;19.23;;;20.00;1.00;;;;;;4891286;29;20487;-84
2023/06/01 10:25:43;;;;;;;84.13;18.73;;;20.10;1.00;;;;;;4893319;29;20431;-83
2023/06/01 10:28:13;;;;;;;84.00;20.47;;;20.20;1.00;;;;;;4892346;29;20459;-83
2023/06/01 10:30:39;;;;;;;85.60;18.97;;;20.40;1.00;;;;;;4892879;29;20491;-83
2023/06/01 10:33:06;;;;;;;84.47;18.80;;;20.60;1.00;;;;;;4893630;29;20960;-83
2023/06/01 10:35:32;;;;;;;89.50;20.67;;;21.00;1.00;;;;;;4893266;29;20956;-83
2023/06/01 10:38:07;;;;;;;89.40;17.60;;;21.20;1.00;;;;;;4892058;29;20433;-83
2023/06/01 10:40:36;;;;;;;87.77;17.93;;;21.20;1.00;;;;;;4896470;29;20440;-84
2023/06/01 10:43:03;;;;;;;85.07;18.00;;;21.20;1.00;;;;;;4896896;29;20516;-84
2023/06/01 10:45:35;;;;;;;91.47;19.40;;;21.30;1.00;;;;;;4897209;29;20461;-83
2023/06/01 10:48:02;;;;;;;90.70;19.40;;;21.10;1.00;;;;;;4897182;29;20453;-83
2023/06/01 10:50:27;;;;;;;91.30;18.77;;;21.40;1.00;;;;;;4897542;29;20419;-84
2023/06/01 10:52:54;;;;;;;87.13;17.77;;;21.40;1.00;;;;;;4898032;29;20455;-83
2023/06/01 10:55:21;;;;;;;84.60;17.03;;;21.40;1.00;;;;;;4896030;29;20191;-83
2023/06/01 10:57:47;;;;;;;86.17;18.00;;;21.60;1.00;;;;;;4896099;29;20432;-83
2023/06/01 11:00:20;;;;;;;85.67;18.27;;;21.80;1.00;;;;;;4896320;29;20532;-83
2023/06/01 11:03:05;;;;;;;91.30;21.20;;;22.20;1.00;;;;;;4896303;29;20448;-82
2023/06/01 11:05:46;;;;;;;91.00;21.90;;;22.10;1.00;;;;;;4896078;29;20776;-83
2023/06/01 11:08:21;;;;;;;94.57;22.67;;;22.30;1.00;;;;;;4896885;29;20486;-83
2023/06/01 11:10:53;;;;;;;95.47;23.20;;;22.50;1.00;;;;;;4895921;29;20411;-83
2023/06/01 11:13:25;;;;;;;97.70;24.90;;;22.40;1.00;;;;;;4894507;29;20479;-83
2023/06/01 11:16:14;;;;;;;92.50;21.10;;;22.40;1.00;;;;;;4895980;29;20497;-83
2023/06/01 11:18:42;;;;;;;94.87;21.97;;;22.40;1.00;;;;;;4895149;29;20404;-83
2023/06/01 11:21:20;;;;;;;97.13;24.00;;;22.40;1.00;;;;;;4895228;29;20423;-83
2023/06/01 11:23:47;;;;;;;98.83;23.70;;;22.70;1.00;;;;;;4897336;29;20391;-83
2023/06/01 11:26:18;;;;;;;97.90;23.73;;;22.30;1.00;;;;;;4896877;29;20435;-83
2023/06/01 11:28:46;;;;;;;98.80;24.07;;;22.30;1.00;;;;;;4896648;29;20436;-83
2023/06/01 11:31:14;;;;;;;94.27;23.10;;;22.30;1.00;;;;;;4896871;29;20435;-83
2023/06/01 11:33:40;;;;;;;95.70;23.67;;;22.60;1.00;;;;;;4897424;29;20415;-83
2023/06/01 11:36:10;;;;;;;101.37;20.53;;;22.90;1.00;;;;;;4896874;29;20406;-83
2023/06/01 11:38:38;;;;;;;98.13;23.47;;;23.10;1.00;;;;;;4896549;29;20408;-83
2023/06/01 11:41:04;;;;;;;94.30;23.67;;;23.00;1.00;;;;;;4896033;29;20431;-83
2023/06/01 11:43:31;;;;;;;96.00;22.20;;;23.00;1.00;;;;;;4895165;29;20416;-83
2023/06/01 11:46:07;;;;;;;92.97;22.73;;;23.10;1.00;;;;;;4896455;29;20260;-83
2023/06/01 11:48:34;;;;;;;99.50;23.97;;;22.90;1.00;;;;;;4895969;29;20459;-83
2023/06/01 11:51:04;;;;;;;98.03;24.33;;;23.20;1.00;;;;;;4894926;29;20423;-83
2023/06/01 11:53:31;;;;;;;92.80;21.70;;;23.00;1.00;;;;;;4894504;29;20451;-84
2023/06/01 11:55:58;;;;;;;95.90;24.13;;;23.10;1.00;;;;;;4894589;29;20785;-83
2023/06/01 11:58:24;;;;;;;94.47;22.27;;;23.10;1.00;;;;;;4895526;29;20403;-83
2023/06/01 12:00:51;;;;;;;97.83;21.23;;;23.00;1.00;;;;;;4894718;29;20499;-84
2023/06/01 12:03:17;;;;;;;101.00;21.00;;;23.10;1.00;;;;;;4895819;29;20417;-84
2023/06/01 12:05:48;;;;;;;92.67;20.90;;;23.30;1.00;;;;;;4895218;29;20419;-83
2023/06/01 12:08:18;;;;;;;89.37;19.97;;;23.40;1.00;;;;;;4893573;29;20449;-83
2023/06/01 12:10:50;;;;;;;89.60;18.60;;;23.50;1.00;;;;;;4894084;29;20423;-82
2023/06/01 12:13:16;;;;;;;87.20;18.53;;;23.60;1.00;;;;;;4895673;29;20443;-84
2023/06/01 12:15:43;;;;;;;85.43;17.30;;;23.60;1.00;;;;;;4896012;29;20443;-84
2023/06/01 12:18:09;;;;;;;87.00;18.30;;;23.70;1.00;;;;;;4894910;29;20427;-83
2023/06/01 12:20:36;;;;;;;88.60;17.77;;;23.60;1.00;;;;;;4895829;29;20411;-83
2023/06/01 12:23:22;;;;;;;87.73;17.17;;;23.40;1.00;;;;;;4893800;29;20183;-83
2023/06/01 12:25:49;;;;;;;88.80;15.87;;;23.50;1.00;;;;;;4893106;29;20769;-83
2023/06/01 12:28:15;;;;;;;85.77;15.97;;;23.30;1.00;;;;;;4894179;29;20422;-84
2023/06/01 12:30:41;;;;;;;89.23;18.67;;;23.20;1.00;;;;;;4895454;29;20416;-83
2023/06/01 12:33:33;;;;;;;87.23;17.67;;;23.20;1.00;;;;;;4894038;29;20270;-83
2023/06/01 12:36:00;;;;;;;87.97;15.60;;;23.20;1.00;;;;;;4887925;29;20182;-83
2023/06/01 12:38:26;;;;;;;86.97;14.50;;;23.40;1.00;;;;;;4894630;29;20444;-83
2023/06/01 12:41:07;;;;;;;84.70;15.03;;;23.50;1.00;;;;;;4895225;29;20411;-83
2023/06/01 12:43:37;;;;;;;87.13;13.80;;;23.50;1.00;;;;;;4895139;29;20471;-83
2023/06/01 12:46:06;;;;;;;81.83;11.90;;;23.30;1.00;;;;;;4893463;29;20415;-82
2023/06/01 12:48:34;;;;;;;82.27;14.90;;;23.50;1.00;;;;;;4895074;29;20427;-83